Terminal Aerodrome Forecast
Issued by NWS Missoula, MT

Home | Current Version | Previous Version | Text Only | Print | Product List | Glossary On
Versions: 1 2 3 4 5 6 7 8 9 10 11 12 13
593
FTUS45 KMSO 212339
TAFBTM
TAF
KBTM 212339Z 2200/2224 24011G22KT P6SM BKN090
     FM220200 26010KT P6SM VCSH BKN060
     FM221000 28005KT P6SM VCSH SCT040 BKN050
     FM221900 31009KT P6SM BKN060=

USA.gov is the U.S. government's official web portal to all federal, state and local government web resources and services.